Time;durP1;ratioP1;P1;durP2;ratioP2;P2;SDS_P1;SDS_P2;PMS_P1;PMS_P2;Temp;Humidity;BMP_temperature;BMP_pressure;BME280_temperature;BME280_humidity;BME280_pressure;Samples;Min_cycle;Max_cycle;Signal;HPM_P1;HPM_P2
2021/08/23 00:01:57;;;;;;;11.50;5.35;;;21.60;73.50;;;;;;5013329;28;20065;-64
2021/08/23 00:04:23;;;;;;;9.80;5.63;;;21.70;72.90;;;;;;5013784;28;20026;-65
2021/08/23 00:06:49;;;;;;;11.00;4.18;;;21.70;72.70;;;;;;4996022;28;20053;-68
2021/08/23 00:09:15;;;;;;;17.52;4.70;;;21.70;71.60;;;;;;5013639;28;20030;-67
2021/08/23 00:11:40;;;;;;;11.40;4.75;;;21.80;71.40;;;;;;5013277;28;20037;-68
2021/08/23 00:14:07;;;;;;;8.73;4.47;;;21.80;71.40;;;;;;5013555;28;20414;-67
2021/08/23 00:16:32;;;;;;;9.52;4.28;;;21.80;71.40;;;;;;5013167;28;20042;-64
2021/08/23 00:18:58;;;;;;;6.10;4.57;;;21.80;72.10;;;;;;5013170;28;20025;-67
2021/08/23 00:21:27;;;;;;;7.15;4.40;;;21.80;72.90;;;;;;5013441;28;20033;-65
2021/08/23 00:24:04;;;;;;;12.93;4.57;;;21.70;71.40;;;;;;5013435;28;20030;-65
2021/08/23 00:26:31;;;;;;;10.35;4.53;;;21.70;71.20;;;;;;5013140;28;20360;-65
2021/08/23 00:28:57;;;;;;;7.65;4.63;;;21.70;71.50;;;;;;5013371;28;20482;-66
2021/08/23 00:31:22;;;;;;;8.20;3.83;;;21.80;71.40;;;;;;5013430;28;20049;-68
2021/08/23 00:33:49;;;;;;;8.70;4.75;;;21.80;71.50;;;;;;4995606;28;20513;-67
2021/08/23 00:36:15;;;;;;;16.90;4.50;;;21.70;71.10;;;;;;5013067;28;20097;-67
2021/08/23 00:38:41;;;;;;;9.52;4.45;;;21.70;71.90;;;;;;5012994;28;20026;-68
2021/08/23 00:41:07;;;;;;;7.88;4.18;;;21.70;72.20;;;;;;5012973;28;20034;-66
2021/08/23 00:43:33;;;;;;;6.03;4.10;;;21.70;71.60;;;;;;5012997;28;20434;-65
2021/08/23 00:46:03;;;;;;;7.28;4.47;;;21.70;71.00;;;;;;5013205;28;20065;-65
2021/08/23 00:48:30;;;;;;;10.27;4.70;;;21.70;71.50;;;;;;5013328;28;20030;-66
2021/08/23 00:50:57;;;;;;;13.57;4.65;;;21.70;71.40;;;;;;5013183;28;20026;-67
2021/08/23 00:53:23;;;;;;;4.90;3.80;;;21.70;71.20;;;;;;5013139;28;20030;-66
2021/08/23 00:55:49;;;;;;;13.13;5.55;;;21.70;71.40;;;;;;5012800;28;20122;-65
2021/08/23 00:58:18;;;;;;;7.28;4.63;;;21.60;71.90;;;;;;5013128;28;20022;-66
2021/08/23 01:00:51;;;;;;;10.52;4.75;;;21.60;72.10;;;;;;5013088;28;20057;-68
2021/08/23 01:03:24;;;;;;;11.18;4.68;;;21.70;72.70;;;;;;5013066;28;20459;-67
2021/08/23 01:05:50;;;;;;;11.20;5.20;;;21.60;73.00;;;;;;5013092;28;20037;-67
2021/08/23 01:08:32;;;;;;;18.42;6.50;;;21.40;72.50;;;;;;5013013;28;20092;-66
2021/08/23 01:11:00;;;;;;;;;;;21.50;75.40;;;;;;5013780;28;20387;-67
2021/08/23 01:13:27;;;;;;;19.85;7.15;;;21.30;74.00;;;;;;5012954;28;19960;-67
2021/08/23 01:15:53;;;;;;;22.23;7.60;;;21.30;74.70;;;;;;5012906;28;20033;-67
2021/08/23 01:18:19;;;;;;;13.75;6.40;;;21.30;75.30;;;;;;4995247;28;20030;-68
2021/08/23 01:20:47;;;;;;;13.13;7.00;;;21.30;77.10;;;;;;5013205;28;20033;-67
2021/08/23 01:23:13;;;;;;;19.23;6.78;;;21.30;78.30;;;;;;4995255;28;20026;-66
2021/08/23 01:25:41;;;;;;;22.42;6.75;;;21.20;79.40;;;;;;5012926;28;20034;-67
2021/08/23 01:28:11;;;;;;;12.98;6.22;;;21.10;80.00;;;;;;4995255;28;20449;-65
2021/08/23 01:31:05;;;;;;;14.43;6.75;;;21.10;80.80;;;;;;5012678;28;20061;-68
2021/08/23 01:33:32;;;;;;;17.67;6.72;;;21.00;81.30;;;;;;4986432;28;20192;-69
2021/08/23 01:35:59;;;;;;;14.85;5.97;;;21.00;81.60;;;;;;5012710;28;20637;-69
2021/08/23 01:38:25;;;;;;;10.13;5.38;;;21.00;82.10;;;;;;5012987;28;20033;-67
2021/08/23 01:41:02;;;;;;;12.85;5.78;;;20.90;82.70;;;;;;4995081;28;20029;-65
2021/08/23 01:43:28;;;;;;;19.25;6.05;;;20.90;83.00;;;;;;5012782;28;20026;-68
2021/08/23 01:45:54;;;;;;;10.65;5.90;;;20.80;83.50;;;;;;5012627;28;20187;-67
2021/08/23 01:48:20;;;;;;;19.38;6.40;;;20.80;83.90;;;;;;4997446;28;20030;-66
2021/08/23 01:50:47;;;;;;;16.45;6.10;;;20.70;84.30;;;;;;5016126;28;20022;-67
2021/08/23 01:53:15;;;;;;;16.13;5.97;;;20.70;84.50;;;;;;5016070;28;20025;-68
2021/08/23 01:55:41;;;;;;;14.18;5.82;;;20.70;84.80;;;;;;5016319;28;20092;-68
2021/08/23 01:58:07;;;;;;;19.77;6.18;;;20.70;85.00;;;;;;5015736;28;20029;-65
2021/08/23 02:00:32;;;;;;;15.95;5.82;;;20.60;84.80;;;;;;5016242;28;20033;-65
2021/08/23 02:02:58;;;;;;;8.93;5.38;;;20.70;85.10;;;;;;5015845;28;20464;-66
2021/08/23 02:05:25;;;;;;;15.65;5.85;;;20.70;85.30;;;;;;4998224;28;20037;-65
2021/08/23 02:07:51;;;;;;;14.23;5.90;;;20.70;85.60;;;;;;5015838;28;20022;-66
2021/08/23 02:10:17;;;;;;;11.20;5.35;;;20.60;85.60;;;;;;4998128;28;20113;-66
2021/08/23 02:12:43;;;;;;;11.25;5.80;;;20.50;86.40;;;;;;5015690;28;20026;-67
2021/08/23 02:15:09;;;;;;;12.55;5.25;;;20.50;86.80;;;;;;5015711;28;20070;-64
2021/08/23 02:17:35;;;;;;;10.38;6.15;;;20.50;87.40;;;;;;5015384;28;20030;-67
2021/08/23 02:20:01;;;;;;;11.10;5.65;;;20.50;87.40;;;;;;5015884;28;20088;-67
2021/08/23 02:22:27;;;;;;;7.13;5.50;;;20.40;86.90;;;;;;4997882;28;20026;-66
2021/08/23 02:24:53;;;;;;;9.20;5.20;;;20.40;86.40;;;;;;5015555;28;20421;-65
2021/08/23 02:27:18;;;;;;;14.50;6.05;;;20.40;86.50;;;;;;4997547;28;20037;-67
2021/08/23 02:29:44;;;;;;;10.25;6.15;;;20.30;86.70;;;;;;4997573;28;20052;-66
2021/08/23 02:32:10;;;;;;;7.50;5.50;;;20.10;87.50;;;;;;5014979;28;20049;-67
2021/08/23 02:34:36;;;;;;;13.55;5.25;;;20.20;87.20;;;;;;5015205;28;20051;-67
2021/08/23 02:37:02;;;;;;;8.90;5.30;;;20.10;87.50;;;;;;5015239;28;20025;-68
2021/08/23 02:39:28;;;;;;;9.30;5.85;;;20.10;87.90;;;;;;5015329;28;20368;-68
2021/08/23 02:41:54;;;;;;;7.63;5.00;;;20.00;88.90;;;;;;5015416;28;20102;-65
2021/08/23 02:44:21;;;;;;;14.65;5.45;;;19.90;90.00;;;;;;5015139;28;20084;-68
2021/08/23 02:46:47;;;;;;;8.52;5.28;;;19.90;89.60;;;;;;4997428;28;20041;-69
2021/08/23 02:49:13;;;;;;;9.93;4.80;;;20.00;89.10;;;;;;4997441;28;20032;-66
2021/08/23 02:51:39;;;;;;;8.93;5.03;;;20.00;87.70;;;;;;5014974;28;20022;-68
2021/08/23 02:54:05;;;;;;;9.48;5.80;;;20.10;86.30;;;;;;4997327;28;20084;-66
2021/08/23 02:56:31;;;;;;;10.23;5.55;;;20.00;85.90;;;;;;5014801;28;20117;-66
2021/08/23 02:58:56;;;;;;;10.50;5.40;;;20.00;85.40;;;;;;5013432;28;20030;-67
2021/08/23 03:01:22;;;;;;;11.52;5.88;;;20.00;85.20;;;;;;5014815;28;20017;-69
2021/08/23 03:03:48;;;;;;;7.80;5.18;;;20.00;85.50;;;;;;5014715;28;20030;-67
2021/08/23 03:06:14;;;;;;;9.93;5.90;;;19.90;85.70;;;;;;5014762;28;20073;-68
2021/08/23 03:08:40;;;;;;;7.28;5.25;;;19.90;86.40;;;;;;4997040;28;20124;-68
2021/08/23 03:11:10;;;;;;;10.38;5.50;;;19.90;86.90;;;;;;5014631;28;20418;-65
2021/08/23 03:13:37;;;;;;;8.30;5.37;;;19.90;87.00;;;;;;5014633;28;20084;-67
2021/08/23 03:16:04;;;;;;;8.48;5.10;;;19.90;86.90;;;;;;5014524;28;20297;-64
2021/08/23 03:18:30;;;;;;;8.10;5.65;;;19.80;87.20;;;;;;4996874;28;20458;-67
2021/08/23 03:20:56;;;;;;;9.40;5.40;;;19.80;87.60;;;;;;5014709;28;20026;-69
2021/08/23 03:23:22;;;;;;;10.40;6.43;;;19.80;88.00;;;;;;5014377;28;20049;-66
2021/08/23 03:25:48;;;;;;;18.98;5.60;;;19.80;88.40;;;;;;5014398;28;20034;-67
2021/08/23 03:28:14;;;;;;;8.77;5.80;;;19.80;88.60;;;;;;5014291;28;20037;-67
2021/08/23 03:30:39;;;;;;;7.95;5.22;;;19.80;88.80;;;;;;5013924;28;20056;-68
2021/08/23 03:33:05;;;;;;;15.70;5.72;;;19.80;89.00;;;;;;5014157;28;20030;-65
2021/08/23 03:35:32;;;;;;;11.20;5.88;;;19.80;89.10;;;;;;5014322;28;20042;-66
2021/08/23 03:38:00;;;;;;;9.73;5.45;;;19.80;89.50;;;;;;5014076;28;20026;-65
2021/08/23 03:40:25;;;;;;;8.98;6.18;;;19.70;89.90;;;;;;5014172;28;20034;-67
2021/08/23 03:42:51;;;;;;;8.75;5.97;;;19.80;90.10;;;;;;5014309;28;20096;-65
2021/08/23 03:45:17;;;;;;;15.13;6.07;;;19.70;90.20;;;;;;5014025;28;20542;-68
2021/08/23 03:47:43;;;;;;;11.20;5.53;;;19.80;90.40;;;;;;4996597;28;20029;-66
2021/08/23 03:50:09;;;;;;;11.27;5.97;;;19.70;90.40;;;;;;4995991;28;20033;-67
2021/08/23 03:52:35;;;;;;;9.63;5.47;;;19.70;90.40;;;;;;5013850;28;20034;-67
2021/08/23 03:55:02;;;;;;;8.98;5.75;;;19.70;90.00;;;;;;5013809;28;20034;-66
2021/08/23 03:57:28;;;;;;;16.77;5.50;;;19.70;90.10;;;;;;5013834;28;20113;-64
2021/08/23 03:59:53;;;;;;;15.90;6.07;;;19.70;90.20;;;;;;4996161;28;20120;-66
2021/08/23 04:02:19;;;;;;;8.98;5.82;;;19.70;90.20;;;;;;4996100;28;20026;-65
2021/08/23 04:04:45;;;;;;;8.70;5.07;;;19.70;90.20;;;;;;5013637;28;20033;-66
2021/08/23 04:07:11;;;;;;;9.10;5.80;;;19.70;90.30;;;;;;5013637;28;20026;-65
2021/08/23 04:09:37;;;;;;;9.45;5.30;;;19.70;89.90;;;;;;5013347;28;20156;-66
2021/08/23 04:12:03;;;;;;;8.55;5.30;;;19.70;89.80;;;;;;4995893;28;20421;-67
2021/08/23 04:14:30;;;;;;;10.48;5.35;;;19.70;89.70;;;;;;5013077;28;20050;-65
2021/08/23 04:16:57;;;;;;;9.70;4.88;;;19.70;89.80;;;;;;5013328;28;20105;-65
2021/08/23 04:19:22;;;;;;;6.75;5.53;;;19.70;89.90;;;;;;5013543;28;20115;-66
2021/08/23 04:21:48;;;;;;;11.98;6.22;;;19.60;90.00;;;;;;5013468;28;20125;-66
2021/08/23 04:24:14;;;;;;;9.15;5.15;;;19.70;90.20;;;;;;5013397;28;20041;-66
2021/08/23 04:26:40;;;;;;;7.38;5.70;;;19.70;90.20;;;;;;5013398;28;20371;-67
2021/08/23 04:29:06;;;;;;;10.70;5.68;;;19.70;90.00;;;;;;5013390;28;20069;-66
2021/08/23 04:31:32;;;;;;;12.75;5.25;;;19.70;89.60;;;;;;5013250;28;20041;-65
2021/08/23 04:33:58;;;;;;;14.35;5.57;;;19.80;88.80;;;;;;5013283;28;20034;-66
2021/08/23 04:36:24;;;;;;;15.77;5.68;;;19.80;88.40;;;;;;5012966;28;20490;-68
2021/08/23 04:38:50;;;;;;;13.23;5.65;;;19.80;88.20;;;;;;5013527;28;20493;-65
2021/08/23 04:41:16;;;;;;;18.92;5.75;;;19.80;88.20;;;;;;5013263;28;20022;-68
2021/08/23 04:43:41;;;;;;;13.50;5.78;;;19.80;88.10;;;;;;5013472;28;20032;-66
2021/08/23 04:46:07;;;;;;;7.95;5.40;;;19.80;87.90;;;;;;4995579;28;20475;-64
2021/08/23 04:48:33;;;;;;;10.27;5.45;;;19.90;88.00;;;;;;4995539;28;20030;-65
2021/08/23 04:50:59;;;;;;;8.65;4.65;;;19.90;87.90;;;;;;5013199;28;20119;-68
2021/08/23 04:53:25;;;;;;;11.45;5.65;;;20.00;88.40;;;;;;5013139;28;20029;-65
2021/08/23 04:55:51;;;;;;;22.42;5.50;;;20.00;88.30;;;;;;5013027;28;20044;-68
2021/08/23 04:58:17;;;;;;;26.90;7.22;;;20.00;88.00;;;;;;5013074;28;20041;-67
2021/08/23 05:00:42;;;;;;;8.50;5.47;;;20.00;87.80;;;;;;5013073;28;20467;-68
2021/08/23 05:03:09;;;;;;;10.40;5.30;;;20.10;87.60;;;;;;5013040;28;20534;-72
2021/08/23 05:05:35;;;;;;;13.48;5.55;;;20.10;87.90;;;;;;5013006;28;20068;-70
2021/08/23 05:08:01;;;;;;;13.35;5.38;;;20.20;87.60;;;;;;5013002;28;20083;-69
2021/08/23 05:10:27;;;;;;;9.55;5.97;;;20.20;87.50;;;;;;5013007;28;20111;-68
2021/08/23 05:12:56;;;;;;;12.38;6.70;;;20.30;87.50;;;;;;5012965;28;20441;-69
2021/08/23 05:15:23;;;;;;;10.63;6.05;;;20.30;87.20;;;;;;4995007;28;20030;-66
2021/08/23 05:17:49;;;;;;;16.65;6.10;;;20.40;87.30;;;;;;5012940;28;20030;-67
2021/08/23 05:20:15;;;;;;;10.80;5.68;;;20.40;86.70;;;;;;5013183;28;20049;-68
2021/08/23 05:22:41;;;;;;;11.18;5.88;;;20.50;86.80;;;;;;4996912;28;20026;-67
2021/08/23 05:25:07;;;;;;;15.57;6.55;;;20.50;86.90;;;;;;5016573;28;20030;-69
2021/08/23 05:27:34;;;;;;;13.02;6.85;;;20.50;86.40;;;;;;5016566;28;20038;-65
2021/08/23 05:30:37;;;;;;;19.85;7.13;;;20.60;85.70;;;;;;4998412;28;20037;-65
2021/08/23 05:33:03;;;;;;;56.70;20.48;;;20.60;85.30;;;;;;5016144;28;20372;-67
2021/08/23 05:35:29;;;;;;;51.88;23.05;;;20.70;85.50;;;;;;5016353;28;20045;-66
2021/08/23 05:37:55;;;;;;;41.30;19.15;;;20.70;86.20;;;;;;5016415;28;20070;-67
2021/08/23 05:40:23;;;;;;;29.88;15.48;;;20.70;85.70;;;;;;4998734;28;20064;-64
2021/08/23 05:42:50;;;;;;;30.42;13.98;;;20.80;85.20;;;;;;5016596;28;20129;-63
2021/08/23 05:45:16;;;;;;;28.02;14.02;;;20.80;87.00;;;;;;5016113;28;20030;-67
2021/08/23 05:47:42;;;;;;;29.23;12.80;;;20.90;86.40;;;;;;5015986;28;20092;-66
2021/08/23 05:50:09;;;;;;;24.73;13.10;;;21.00;86.70;;;;;;5016068;28;20037;-64
2021/08/23 05:52:35;;;;;;;22.65;11.38;;;21.00;85.50;;;;;;5016090;28;20101;-65
2021/08/23 05:55:01;;;;;;;22.58;10.60;;;;;;;;;;5015637;28;20109;-64
2021/08/23 05:57:28;;;;;;;19.42;8.50;;;;;;;;;;4998319;28;20037;-64
2021/08/23 05:59:54;;;;;;;16.00;5.90;;;21.10;84.60;;;;;;5015797;28;20026;-66
2021/08/23 06:02:20;;;;;;;19.63;8.38;;;21.40;79.80;;;;;;5015749;28;20032;-65
2021/08/23 06:04:47;;;;;;;13.75;5.60;;;21.50;83.80;;;;;;5016038;28;20029;-67
2021/08/23 06:07:14;;;;;;;21.13;5.82;;;21.50;79.00;;;;;;5015754;28;20029;-67
2021/08/23 06:09:41;;;;;;;9.23;5.20;;;21.60;80.70;;;;;;4998083;28;20060;-67
2021/08/23 06:12:07;;;;;;;15.38;5.93;;;21.70;77.30;;;;;;4997975;28;20478;-65
2021/08/23 06:14:33;;;;;;;6.47;4.72;;;21.70;77.20;;;;;;5004433;28;20454;-65
2021/08/23 06:16:59;;;;;;;8.20;5.60;;;22.00;89.40;;;;;;5000691;28;20069;-64
2021/08/23 06:19:25;;;;;;;12.15;5.68;;;21.90;76.80;;;;;;5007497;28;20026;-64
2021/08/23 06:21:51;;;;;;;16.48;6.32;;;22.00;76.20;;;;;;5015545;28;20034;-65
2021/08/23 06:24:17;;;;;;;9.73;5.40;;;;;;;;;;5015446;28;20486;-65
2021/08/23 06:26:43;;;;;;;17.17;5.60;;;;;;;;;;5015496;28;20032;-65
2021/08/23 06:29:09;;;;;;;11.32;5.60;;;22.10;78.10;;;;;;5015105;28;20022;-67
2021/08/23 06:31:38;;;;;;;9.65;5.65;;;22.30;74.70;;;;;;5014931;28;20057;-65
2021/08/23 06:34:04;;;;;;;13.88;5.35;;;22.50;83.10;;;;;;5014985;28;20029;-66
2021/08/23 06:36:33;;;;;;;15.55;6.35;;;22.50;77.10;;;;;;5015286;28;20026;-67
2021/08/23 06:38:58;;;;;;;12.50;5.88;;;22.50;76.40;;;;;;5015220;28;20030;-66
2021/08/23 06:41:25;;;;;;;15.32;6.00;;;;;;;;;;5015094;28;20022;-67
2021/08/23 06:43:52;;;;;;;13.02;5.93;;;22.60;76.60;;;;;;4997544;28;20576;-65
2021/08/23 06:46:17;;;;;;;16.85;6.38;;;22.70;77.40;;;;;;5015171;28;20378;-67
2021/08/23 06:48:44;;;;;;;14.25;6.07;;;22.80;77.00;;;;;;5015003;28;20030;-64
2021/08/23 06:51:11;;;;;;;10.57;6.00;;;22.90;76.70;;;;;;5014974;28;20030;-66
2021/08/23 06:53:37;;;;;;;13.68;6.20;;;23.00;76.50;;;;;;5014894;28;20041;-65
2021/08/23 06:56:03;;;;;;;19.65;5.57;;;23.10;76.00;;;;;;5014593;28;20470;-64
2021/08/23 06:58:29;;;;;;;12.73;6.13;;;23.10;76.20;;;;;;4996840;28;20037;-64
2021/08/23 07:00:54;;;;;;;12.02;5.55;;;23.30;75.90;;;;;;5013129;28;20033;-65
2021/08/23 07:03:20;;;;;;;9.93;5.47;;;23.30;75.60;;;;;;5014935;28;20485;-67
2021/08/23 07:05:46;;;;;;;13.80;5.20;;;23.40;75.40;;;;;;4996697;28;20042;-66
2021/08/23 07:08:13;;;;;;;10.73;4.80;;;23.60;75.30;;;;;;5014729;28;20038;-67
2021/08/23 07:10:39;;;;;;;15.27;5.15;;;23.60;74.20;;;;;;5014596;28;20490;-65
2021/08/23 07:13:05;;;;;;;14.35;5.55;;;23.80;73.80;;;;;;5014516;28;20021;-68
2021/08/23 07:15:31;;;;;;;14.98;5.28;;;23.90;73.50;;;;;;4996748;28;20037;-68
2021/08/23 07:17:57;;;;;;;9.52;5.30;;;24.00;73.00;;;;;;5014385;28;20120;-66
2021/08/23 07:20:22;;;;;;;17.50;5.32;;;24.20;73.10;;;;;;5013971;28;20478;-70
2021/08/23 07:22:48;;;;;;;44.45;8.00;;;24.30;72.00;;;;;;4996797;28;20029;-70
2021/08/23 07:25:18;;;;;;;25.88;5.50;;;24.40;71.00;;;;;;5013939;28;20481;-72
2021/08/23 07:27:44;;;;;;;20.70;5.70;;;24.60;72.10;;;;;;5013764;28;20030;-72
2021/08/23 07:30:10;;;;;;;14.27;5.68;;;24.70;71.00;;;;;;5014130;28;20217;-71
2021/08/23 07:32:36;;;;;;;11.30;5.90;;;24.80;71.10;;;;;;5013898;28;20026;-68
2021/08/23 07:35:03;;;;;;;11.18;6.25;;;24.90;69.30;;;;;;5013951;28;20105;-70
2021/08/23 07:37:32;;;;;;;12.65;6.65;;;25.00;69.60;;;;;;5012952;28;20026;-69
2021/08/23 07:39:58;;;;;;;12.65;5.30;;;25.10;69.60;;;;;;5014026;28;20030;-72
2021/08/23 07:42:25;;;;;;;14.27;5.75;;;25.30;71.00;;;;;;5013947;28;20037;-70
2021/08/23 07:44:51;;;;;;;19.55;6.35;;;;;;;;;;5013226;28;20030;-70
2021/08/23 07:47:17;;;;;;;12.63;5.30;;;25.60;96.80;;;;;;4995615;28;20467;-72
2021/08/23 07:49:43;;;;;;;26.10;7.88;;;25.80;81.30;;;;;;4995226;28;20022;-73
2021/08/23 07:52:08;;;;;;;20.50;6.78;;;25.90;68.40;;;;;;5013576;28;20034;-69
2021/08/23 07:54:36;;;;;;;29.65;7.03;;;26.00;68.70;;;;;;4995962;28;20026;-69
2021/08/23 07:57:03;;;;;;;22.13;6.07;;;26.20;69.50;;;;;;5013707;28;20032;-71
2021/08/23 07:59:29;;;;;;;7.40;4.30;;;26.40;67.90;;;;;;5013113;28;20422;-71
2021/08/23 08:01:55;;;;;;;11.10;4.65;;;26.50;65.20;;;;;;4995901;28;20121;-72
2021/08/23 08:04:21;;;;;;;6.05;4.30;;;26.70;65.30;;;;;;5013219;28;20080;-71
2021/08/23 08:06:47;;;;;;;9.45;4.68;;;26.90;63.30;;;;;;5013431;28;20030;-70
2021/08/23 08:09:13;;;;;;;13.43;4.78;;;27.00;64.20;;;;;;4995693;28;20516;-70
2021/08/23 08:11:39;;;;;;;11.98;3.85;;;27.20;64.60;;;;;;4984721;28;20538;-70
2021/08/23 08:14:05;;;;;;;6.00;4.07;;;27.40;63.20;;;;;;4992964;28;20022;-70
2021/08/23 08:16:31;;;;;;;9.13;4.07;;;27.50;63.00;;;;;;4975922;28;20034;-71
2021/08/23 08:18:56;;;;;;;8.93;4.32;;;27.70;61.80;;;;;;4976037;28;20426;-72
2021/08/23 08:21:23;;;;;;;6.90;3.72;;;27.90;61.40;;;;;;4975069;28;20034;-70
2021/08/23 08:23:53;;;;;;;6.63;4.10;;;28.00;60.90;;;;;;4993127;28;20083;-70
2021/08/23 08:26:21;;;;;;;9.48;4.07;;;28.10;60.50;;;;;;4992188;28;20030;-71
2021/08/23 08:28:47;;;;;;;7.57;3.75;;;28.20;60.10;;;;;;4993461;28;20033;-71
2021/08/23 08:31:12;;;;;;;8.35;3.78;;;28.30;58.70;;;;;;4972110;28;20407;-71
2021/08/23 08:33:38;;;;;;;4.95;3.42;;;28.40;58.80;;;;;;4974130;28;20141;-72
2021/08/23 08:36:04;;;;;;;5.15;3.40;;;28.60;58.60;;;;;;4974023;28;20049;-69
2021/08/23 08:38:30;;;;;;;8.30;3.78;;;28.70;59.10;;;;;;4974125;28;20420;-71
2021/08/23 08:41:01;;;;;;;5.13;3.70;;;28.80;58.20;;;;;;4973766;28;20030;-71
2021/08/23 08:43:28;;;;;;;5.72;3.85;;;28.80;57.60;;;;;;4973979;28;20027;-70
2021/08/23 08:45:54;;;;;;;8.25;3.92;;;28.90;56.50;;;;;;4972678;28;20093;-70
2021/08/23 08:48:21;;;;;;;8.13;3.90;;;29.00;57.20;;;;;;4973929;28;20464;-71
2021/08/23 08:50:49;;;;;;;8.55;4.38;;;29.10;59.10;;;;;;4973847;28;20476;-70
2021/08/23 08:53:15;;;;;;;7.60;4.05;;;29.30;57.40;;;;;;4973868;28;20034;-72
2021/08/23 08:55:42;;;;;;;12.10;4.40;;;29.40;58.40;;;;;;4972362;28;20039;-70
2021/08/23 08:58:08;;;;;;;17.77;4.70;;;29.50;57.40;;;;;;4977609;28;20031;-70
2021/08/23 09:00:38;;;;;;;9.52;4.18;;;29.60;58.30;;;;;;4976181;28;20073;-71
2021/08/23 09:03:04;;;;;;;13.02;4.68;;;29.80;57.20;;;;;;4976542;28;20383;-70
2021/08/23 09:05:48;;;;;;;11.63;4.45;;;29.90;58.20;;;;;;4977665;28;20038;-72
2021/08/23 09:08:14;;;;;;;9.30;3.90;;;30.10;56.60;;;;;;4977585;28;20117;-69
2021/08/23 09:10:41;;;;;;;14.60;5.18;;;30.20;56.50;;;;;;4977763;28;20643;-68
2021/08/23 09:13:10;;;;;;;8.60;3.42;;;30.50;55.50;;;;;;4977096;28;20023;-68
2021/08/23 09:15:37;;;;;;;11.48;4.78;;;30.50;55.50;;;;;;4975224;28;20089;-67
2021/08/23 09:18:06;;;;;;;12.57;4.85;;;30.70;54.10;;;;;;4976526;28;20058;-71
2021/08/23 09:20:33;;;;;;;8.77;4.93;;;30.70;54.90;;;;;;4975981;28;20483;-67
2021/08/23 09:23:17;;;;;;;17.35;5.40;;;30.80;55.40;;;;;;4977566;28;20483;-68
2021/08/23 09:25:45;;;;;;;16.27;5.07;;;31.00;54.30;;;;;;4975822;28;20046;-68
2021/08/23 09:28:11;;;;;;;12.55;4.80;;;30.80;52.90;;;;;;4976770;28;20023;-71
2021/08/23 09:31:00;;;;;;;6.57;4.68;;;30.90;53.10;;;;;;4982328;28;20046;-69
2021/08/23 09:33:26;;;;;;;8.05;4.78;;;31.00;53.70;;;;;;4996774;28;20383;-69
2021/08/23 09:35:52;;;;;;;13.35;4.65;;;31.10;55.10;;;;;;4996742;28;20030;-71
2021/08/23 09:38:18;;;;;;;12.88;5.10;;;31.40;54.90;;;;;;4997086;28;20030;-70
2021/08/23 09:40:47;;;;;;;14.63;5.15;;;31.40;52.40;;;;;;4979004;28;20030;-68
2021/08/23 09:43:16;;;;;;;13.13;4.95;;;31.40;51.80;;;;;;4996401;28;20030;-69
2021/08/23 09:45:47;;;;;;;9.20;4.72;;;31.40;51.60;;;;;;4996666;28;20081;-68
2021/08/23 09:48:14;;;;;;;9.55;4.32;;;31.30;52.50;;;;;;4996573;28;20053;-69
2021/08/23 09:50:50;;;;;;;9.27;5.47;;;31.50;52.10;;;;;;4996571;28;20023;-68
2021/08/23 09:53:19;;;;;;;8.02;4.65;;;31.60;52.40;;;;;;4996576;28;20058;-71
2021/08/23 09:55:49;;;;;;;10.40;5.30;;;31.70;51.40;;;;;;4995882;28;20037;-68
2021/08/23 09:58:15;;;;;;;10.80;4.75;;;31.80;52.10;;;;;;4978541;28;20399;-68
2021/08/23 10:00:42;;;;;;;11.48;5.07;;;32.20;53.00;;;;;;4978709;28;20386;-69
2021/08/23 10:03:31;;;;;;;12.30;4.72;;;32.20;51.30;;;;;;4996411;28;20054;-70
2021/08/23 10:05:57;;;;;;;9.90;4.43;;;32.40;52.10;;;;;;4996355;28;20030;-68
2021/08/23 10:08:25;;;;;;;13.90;5.35;;;32.40;51.80;;;;;;4995385;28;20029;-71
2021/08/23 10:10:54;;;;;;;9.02;5.07;;;32.30;52.20;;;;;;4996203;28;20048;-69
2021/08/23 10:13:20;;;;;;;11.32;4.35;;;32.30;50.90;;;;;;4996130;28;20030;-70
2021/08/23 10:15:46;;;;;;;10.05;4.38;;;32.40;50.60;;;;;;4995940;28;20038;-68
2021/08/23 10:18:14;;;;;;;8.30;4.82;;;32.30;50.10;;;;;;4978624;28;20419;-69
2021/08/23 10:20:40;;;;;;;10.48;4.93;;;32.30;51.40;;;;;;4978547;28;20485;-67
2021/08/23 10:23:07;;;;;;;6.05;4.57;;;32.40;51.60;;;;;;4995972;28;20109;-68
2021/08/23 10:25:34;;;;;;;12.63;5.10;;;32.60;52.60;;;;;;4978078;28;20058;-69
2021/08/23 10:28:34;;;;;;;6.28;4.65;;;32.60;52.60;;;;;;4995979;28;20022;-67
2021/08/23 10:31:10;;;;;;;8.30;4.45;;;33.00;52.00;;;;;;4974741;28;20447;-67
2021/08/23 10:33:39;;;;;;;9.45;4.57;;;33.20;51.90;;;;;;4975103;28;20053;-67
2021/08/23 10:36:07;;;;;;;9.43;5.10;;;33.70;51.50;;;;;;4976315;28;20502;-67
2021/08/23 10:38:34;;;;;;;10.07;5.22;;;33.80;51.70;;;;;;4974978;28;20423;-68
2021/08/23 10:41:23;;;;;;;10.63;5.75;;;34.30;50.30;;;;;;4976170;28;20027;-67
2021/08/23 10:43:51;;;;;;;11.50;5.25;;;34.50;49.30;;;;;;4974909;28;20030;-70
2021/08/23 10:46:35;;;;;;;6.60;4.60;;;34.90;49.20;;;;;;4975825;28;20399;-69
2021/08/23 10:49:11;;;;;;;16.98;5.57;;;35.20;48.30;;;;;;4976046;28;20034;-70
2021/08/23 10:51:39;;;;;;;9.98;4.65;;;35.40;48.80;;;;;;4976085;28;20038;-70
2021/08/23 10:54:21;;;;;;;10.95;4.97;;;;;;;;;;4974646;28;20489;-71
2021/08/23 10:56:50;;;;;;;11.18;4.32;;;35.80;47.50;;;;;;4975896;28;20077;-68
2021/08/23 10:59:19;;;;;;;8.27;4.35;;;;;;;;;;4975840;28;20031;-70
2021/08/23 11:01:54;;;;;;;9.45;4.90;;;36.10;47.90;;;;;;4976059;28;20033;-69
2021/08/23 11:04:30;;;;;;;10.32;4.85;;;37.40;47.70;;;;;;4975483;28;20456;-70
2021/08/23 11:06:56;;;;;;;10.82;4.35;;;37.10;46.90;;;;;;4974371;28;20085;-68
2021/08/23 11:09:31;;;;;;;9.30;4.28;;;37.10;45.90;;;;;;4974179;28;20027;-68
2021/08/23 11:12:15;;;;;;;13.00;4.70;;;37.50;45.30;;;;;;4975693;28;20031;-70
2021/08/23 11:14:54;;;;;;;9.35;4.63;;;37.70;44.40;;;;;;4975549;28;20058;-69
2021/08/23 11:17:30;;;;;;;7.07;4.63;;;37.90;46.10;;;;;;4974276;28;20042;-70
2021/08/23 11:19:57;;;;;;;8.50;4.03;;;37.80;43.90;;;;;;4973519;28;20034;-69
2021/08/23 11:22:23;;;;;;;6.80;4.22;;;37.70;44.00;;;;;;4975383;28;20027;-69
2021/08/23 11:24:50;;;;;;;7.30;4.63;;;38.20;43.60;;;;;;4975392;28;20424;-71
2021/08/23 11:27:16;;;;;;;9.77;5.05;;;38.60;44.40;;;;;;4975312;28;20034;-70
2021/08/23 11:29:50;;;;;;;7.72;4.78;;;38.70;43.80;;;;;;4975356;28;20030;-69
2021/08/23 11:32:17;;;;;;;8.43;4.45;;;38.60;43.40;;;;;;4993501;28;20042;-70
2021/08/23 11:34:54;;;;;;;12.95;4.30;;;39.00;43.90;;;;;;4994531;28;20029;-70
2021/08/23 11:37:24;;;;;;;15.60;4.28;;;39.20;42.60;;;;;;4977152;28;20034;-70
2021/08/23 11:40:01;;;;;;;10.18;4.50;;;39.50;42.70;;;;;;4977121;28;20030;-69
2021/08/23 11:42:27;;;;;;;5.03;4.30;;;39.80;43.40;;;;;;4994526;28;20386;-70
2021/08/23 11:44:54;;;;;;;5.85;4.47;;;40.10;44.20;;;;;;4976897;28;20030;-69
2021/08/23 11:47:34;;;;;;;12.90;5.00;;;39.80;42.90;;;;;;4976857;28;20065;-69
2021/08/23 11:50:02;;;;;;;10.20;5.05;;;39.30;42.90;;;;;;4994341;28;20058;-71
2021/08/23 12:03:16;;;;;;;10.38;4.45;;;39.50;43.70;;;;;;5090148;28;20810;-71
2021/08/23 12:05:43;;;;;;;5.97;5.00;;;39.80;44.10;;;;;;5090337;28;20036;-71
2021/08/23 12:08:22;;;;;;;7.63;4.57;;;39.60;43.80;;;;;;5089834;28;20028;-71
2021/08/23 12:11:04;;;;;;;10.02;4.70;;;40.60;44.10;;;;;;5090280;28;20035;-71
2021/08/23 12:13:48;;;;;;;10.63;4.20;;;40.50;42.70;;;;;;5090243;28;20032;-71
2021/08/23 12:16:17;;;;;;;6.30;4.07;;;40.30;42.80;;;;;;5090171;28;20032;-72
2021/08/23 12:18:50;;;;;;;12.43;4.45;;;40.30;43.00;;;;;;5090108;28;20530;-71
2021/08/23 12:21:17;;;;;;;9.90;4.53;;;40.80;42.70;;;;;;5089965;28;20028;-71
2021/08/23 12:23:56;;;;;;;6.93;4.20;;;41.20;42.50;;;;;;5089696;28;20408;-70
2021/08/23 12:26:33;;;;;;;11.23;4.68;;;41.40;42.50;;;;;;5088527;28;20027;-71
2021/08/23 12:29:02;;;;;;;12.82;4.38;;;41.90;41.30;;;;;;5089823;28;20103;-71
2021/08/23 12:31:30;;;;;;;8.73;3.55;;;41.20;41.70;;;;;;5089884;28;20039;-71
2021/08/23 12:33:56;;;;;;;12.13;3.80;;;41.50;42.20;;;;;;5089814;28;20029;-71
2021/08/23 12:36:22;;;;;;;25.80;5.00;;;41.00;42.50;;;;;;5089531;28;20028;-71
2021/08/23 12:38:49;;;;;;;9.48;3.60;;;41.20;42.20;;;;;;5089722;28;20031;-71
2021/08/23 12:41:15;;;;;;;8.93;4.10;;;41.10;42.70;;;;;;5089577;28;20039;-71
2021/08/23 12:43:43;;;;;;;5.95;3.58;;;41.80;42.30;;;;;;5089628;28;20423;-72
2021/08/23 12:46:09;;;;;;;7.57;3.72;;;41.90;41.30;;;;;;5089486;28;20025;-71
2021/08/23 12:48:35;;;;;;;7.85;3.28;;;42.80;40.80;;;;;;5088179;28;20373;-72
2021/08/23 12:51:03;;;;;;;11.60;3.53;;;43.10;41.20;;;;;;5088149;28;20036;-71
2021/08/23 12:53:29;;;;;;;5.43;3.30;;;41.60;41.40;;;;;;5089496;28;20029;-71
2021/08/23 12:55:56;;;;;;;6.07;3.80;;;41.60;40.60;;;;;;5089439;28;20034;-71
2021/08/23 12:58:22;;;;;;;11.35;3.83;;;41.80;40.00;;;;;;5088031;28;20453;-71